sensor_id;sensor_type;location;lat;lon;timestamp;pressure;altitude;pressure_sealevel;temperature;humidity
61026;BME280;46911;32.650;-16.902;2023-03-19T00:00:52;102156.19;;;15.69;72.47
61026;BME280;46911;32.650;-16.902;2023-03-19T00:02:53;102148.84;;;15.58;72.74
61026;BME280;46911;32.650;-16.902;2023-03-19T00:04:54;102132.88;;;15.55;72.78
61026;BME280;46911;32.650;-16.902;2023-03-19T00:06:59;102141.53;;;15.60;72.71
61026;BME280;46911;32.650;-16.902;2023-03-19T00:09:05;102137.31;;;15.56;72.68
61026;BME280;46911;32.650;-16.902;2023-03-19T00:11:10;102153.78;;;15.64;72.82
61026;BME280;46911;32.650;-16.902;2023-03-19T00:13:12;102157.56;;;15.62;72.75
61026;BME280;46911;32.650;-16.902;2023-03-19T00:15:15;102141.16;;;15.52;72.79
61026;BME280;46911;32.650;-16.902;2023-03-19T00:17:18;102148.75;;;15.60;72.89
61026;BME280;46911;32.650;-16.902;2023-03-19T00:19:19;102127.84;;;15.50;72.69
61026;BME280;46911;32.650;-16.902;2023-03-19T00:21:20;102155.75;;;15.62;72.73
61026;BME280;46911;32.650;-16.902;2023-03-19T00:23:26;102142.78;;;15.54;72.79
61026;BME280;46911;32.650;-16.902;2023-03-19T00:25:27;102151.44;;;15.60;72.72
61026;BME280;46911;32.650;-16.902;2023-03-19T00:27:30;102122.84;;;15.44;72.91
61026;BME280;46911;32.650;-16.902;2023-03-19T00:29:33;102152.50;;;15.57;72.93
61026;BME280;46911;32.650;-16.902;2023-03-19T00:31:34;102124.78;;;15.42;72.88
61026;BME280;46911;32.650;-16.902;2023-03-19T00:33:40;102132.34;;;15.50;73.17
61026;BME280;46911;32.650;-16.902;2023-03-19T00:35:46;102138.38;;;15.53;72.89
61026;BME280;46911;32.650;-16.902;2023-03-19T00:37:50;102119.50;;;15.40;72.85
61026;BME280;46911;32.650;-16.902;2023-03-19T00:39:52;102112.41;;;15.39;73.00
61026;BME280;46911;32.650;-16.902;2023-03-19T00:41:55;102139.44;;;15.51;73.22
61026;BME280;46911;32.650;-16.902;2023-03-19T00:43:57;102111.53;;;15.39;72.85
61026;BME280;46911;32.650;-16.902;2023-03-19T00:46:06;102106.47;;;15.34;72.92
61026;BME280;46911;32.650;-16.902;2023-03-19T00:48:07;102121.03;;;15.45;72.90
61026;BME280;46911;32.650;-16.902;2023-03-19T00:50:08;102127.94;;;15.49;73.14
61026;BME280;46911;32.650;-16.902;2023-03-19T00:52:09;102124.47;;;15.47;73.10
61026;BME280;46911;32.650;-16.902;2023-03-19T00:54:13;102109.06;;;15.36;73.21
61026;BME280;46911;32.650;-16.902;2023-03-19T00:56:17;102118.44;;;15.43;72.98
61026;BME280;46911;32.650;-16.902;2023-03-19T00:58:21;102106.16;;;15.39;72.98
61026;BME280;46911;32.650;-16.902;2023-03-19T01:00:22;102118.44;;;15.43;73.23
61026;BME280;46911;32.650;-16.902;2023-03-19T01:02:25;102095.41;;;15.39;73.11
61026;BME280;46911;32.650;-16.902;2023-03-19T01:04:26;102112.53;;;15.51;72.92
61026;BME280;46911;32.650;-16.902;2023-03-19T01:06:27;102103.81;;;15.47;73.17
61026;BME280;46911;32.650;-16.902;2023-03-19T01:08:30;102091.31;;;15.33;73.11
61026;BME280;46911;32.650;-16.902;2023-03-19T01:10:32;102084.97;;;15.34;73.25
61026;BME280;46911;32.650;-16.902;2023-03-19T01:12:35;102093.69;;;15.38;73.20
61026;BME280;46911;32.650;-16.902;2023-03-19T01:14:36;102074.94;;;15.23;73.33
61026;BME280;46911;32.650;-16.902;2023-03-19T01:16:37;102071.34;;;15.23;73.37
61026;BME280;46911;32.650;-16.902;2023-03-19T01:18:39;102091.88;;;15.38;73.66
61026;BME280;46911;32.650;-16.902;2023-03-19T01:20:43;102090.91;;;15.39;73.54
61026;BME280;46911;32.650;-16.902;2023-03-19T01:22:44;102099.06;;;15.38;73.75
61026;BME280;46911;32.650;-16.902;2023-03-19T01:24:48;102071.81;;;15.30;73.72
61026;BME280;46911;32.650;-16.902;2023-03-19T01:26:49;102093.78;;;15.36;73.75
61026;BME280;46911;32.650;-16.902;2023-03-19T01:29:01;102074.50;;;15.30;73.82
61026;BME280;46911;32.650;-16.902;2023-03-19T01:31:06;102090.91;;;15.39;73.63
61026;BME280;46911;32.650;-16.902;2023-03-19T01:33:07;102080.53;;;15.33;73.92
61026;BME280;46911;32.650;-16.902;2023-03-19T01:35:14;102082.06;;;15.37;73.83
61026;BME280;46911;32.650;-16.902;2023-03-19T01:37:17;102071.81;;;15.30;73.76
61026;BME280;46911;32.650;-16.902;2023-03-19T01:39:18;102085.53;;;15.39;73.76
61026;BME280;46911;32.650;-16.902;2023-03-19T01:41:23;102081.84;;;15.40;73.88
61026;BME280;46911;32.650;-16.902;2023-03-19T01:43:29;102078.19;;;15.42;73.90
61026;BME280;46911;32.650;-16.902;2023-03-19T01:45:59;102075.41;;;15.43;73.79
61026;BME280;46911;32.650;-16.902;2023-03-19T01:48:45;102075.63;;;15.40;73.88
61026;BME280;46911;32.650;-16.902;2023-03-19T01:50:49;102073.88;;;15.39;73.92
61026;BME280;46911;32.650;-16.902;2023-03-19T01:52:59;102073.88;;;15.39;74.01
61026;BME280;46911;32.650;-16.902;2023-03-19T01:55:23;102076.78;;;15.36;74.14
61026;BME280;46911;32.650;-16.902;2023-03-19T01:57:45;102057.91;;;15.23;73.96
61026;BME280;46911;32.650;-16.902;2023-03-19T02:00:09;102058.34;;;15.17;74.32
61026;BME280;46911;32.650;-16.902;2023-03-19T02:02:29;102065.25;;;15.21;74.36
61026;BME280;46911;32.650;-16.902;2023-03-19T02:04:38;102079.41;;;15.23;74.69
61026;BME280;46911;32.650;-16.902;2023-03-19T02:06:40;102070.66;;;15.34;74.61
61026;BME280;46911;32.650;-16.902;2023-03-19T02:08:45;102076.78;;;15.36;74.57
61026;BME280;46911;32.650;-16.902;2023-03-19T02:10:53;102068.06;;;15.32;74.63
61026;BME280;46911;32.650;-16.902;2023-03-19T02:12:55;102069.78;;;15.33;74.59
61026;BME280;46911;32.650;-16.902;2023-03-19T02:14:59;102065.59;;;15.29;74.75
61026;BME280;46911;32.650;-16.902;2023-03-19T02:17:00;102058.69;;;15.25;74.71
61026;BME280;46911;32.650;-16.902;2023-03-19T02:19:12;102037.91;;;15.14;74.81
61026;BME280;46911;32.650;-16.902;2023-03-19T02:21:21;102049.63;;;15.13;75.25
61026;BME280;46911;32.650;-16.902;2023-03-19T02:27:47;102064.34;;;15.20;75.16
61026;BME280;46911;32.650;-16.902;2023-03-19T02:29:48;102058.44;;;15.15;75.01
61026;BME280;46911;32.650;-16.902;2023-03-19T02:31:49;102027.31;;;14.98;75.21
61026;BME280;46911;32.650;-16.902;2023-03-19T02:34:01;102053.56;;;15.07;75.27
61026;BME280;46911;32.650;-16.902;2023-03-19T02:36:05;102043.44;;;14.98;75.38
61026;BME280;46911;32.650;-16.902;2023-03-19T02:38:12;102059.69;;;15.10;75.56
61026;BME280;46911;32.650;-16.902;2023-03-19T02:40:19;102058.94;;;15.07;75.61
61026;BME280;46911;32.650;-16.902;2023-03-19T02:42:29;102064.22;;;15.09;75.93
61026;BME280;46911;32.650;-16.902;2023-03-19T02:44:33;102064.31;;;15.07;75.74
61026;BME280;46911;32.650;-16.902;2023-03-19T02:46:37;102052.22;;;15.00;76.03
61026;BME280;46911;32.650;-16.902;2023-03-19T02:48:42;102062.38;;;15.10;75.91
61026;BME280;46911;32.650;-16.902;2023-03-19T02:50:46;102060.69;;;15.09;75.88
61026;BME280;46911;32.650;-16.902;2023-03-19T02:52:49;102049.38;;;15.03;75.93
61026;BME280;46911;32.650;-16.902;2023-03-19T02:54:53;102022.31;;;14.92;76.05
61026;BME280;46911;32.650;-16.902;2023-03-19T02:56:59;102030.38;;;14.92;76.09
61026;BME280;46911;32.650;-16.902;2023-03-19T02:59:03;102045.78;;;15.03;75.96
61026;BME280;46911;32.650;-16.902;2023-03-19T03:01:04;102019.97;;;14.87;75.94
61026;BME280;46911;32.650;-16.902;2023-03-19T03:03:06;102035.47;;;14.97;76.26
61026;BME280;46911;32.650;-16.902;2023-03-19T03:05:07;102020.81;;;14.88;76.17
61026;BME280;46911;32.650;-16.902;2023-03-19T03:07:13;102013.91;;;14.84;76.28
61026;BME280;46911;32.650;-16.902;2023-03-19T03:09:17;102009.09;;;14.89;76.10
61026;BME280;46911;32.650;-16.902;2023-03-19T03:11:24;102030.75;;;15.00;75.96
61026;BME280;46911;32.650;-16.902;2023-03-19T03:13:28;102023.66;;;14.99;76.21
61026;BME280;46911;32.650;-16.902;2023-03-19T03:15:32;101970.97;;;14.69;76.38
61026;BME280;46911;32.650;-16.902;2023-03-19T03:17:37;102013.66;;;15.01;76.11
61026;BME280;46911;32.650;-16.902;2023-03-19T03:19:40;102014.88;;;15.10;76.02
61026;BME280;46911;32.650;-16.902;2023-03-19T03:21:41;102011.19;;;14.98;76.04
61026;BME280;46911;32.650;-16.902;2023-03-19T03:23:42;101993.09;;;14.87;76.21
61026;BME280;46911;32.650;-16.902;2023-03-19T03:25:43;102007.53;;;14.99;76.20
61026;BME280;46911;32.650;-16.902;2023-03-19T03:27:48;101987.97;;;14.97;75.94
61026;BME280;46911;32.650;-16.902;2023-03-19T03:29:49;101984.59;;;14.94;76.14
61026;BME280;46911;32.650;-16.902;2023-03-19T03:31:53;101958.00;;;14.76;76.27
61026;BME280;46911;32.650;-16.902;2023-03-19T03:33:54;101996.13;;;14.96;76.43
61026;BME280;46911;32.650;-16.902;2023-03-19T03:35:57;101967.69;;;14.79;76.46
61026;BME280;46911;32.650;-16.902;2023-03-19T03:37:59;101979.56;;;14.89;76.49
61026;BME280;46911;32.650;-16.902;2023-03-19T03:40:01;101973.72;;;14.82;76.66
61026;BME280;46911;32.650;-16.902;2023-03-19T03:42:06;101967.50;;;14.82;76.66
61026;BME280;46911;32.650;-16.902;2023-03-19T03:44:14;101979.19;;;14.81;76.75
61026;BME280;46911;32.650;-16.902;2023-03-19T03:46:18;101970.38;;;14.79;76.86
61026;BME280;46911;32.650;-16.902;2023-03-19T03:48:26;101955.06;;;14.66;77.01
61026;BME280;46911;32.650;-16.902;2023-03-19T03:50:30;101951.59;;;14.64;77.09
61026;BME280;46911;32.650;-16.902;2023-03-19T03:52:37;101964.44;;;14.73;77.64
61026;BME280;46911;32.650;-16.902;2023-03-19T03:54:38;101935.09;;;14.56;77.32
61026;BME280;46911;32.650;-16.902;2023-03-19T03:56:45;101953.44;;;14.64;77.70
61026;BME280;46911;32.650;-16.902;2023-03-19T03:58:49;101923.28;;;14.46;77.65
61026;BME280;46911;32.650;-16.902;2023-03-19T04:00:50;101934.66;;;14.49;77.83
61026;BME280;46911;32.650;-16.902;2023-03-19T04:02:52;101950.16;;;14.59;78.08
61026;BME280;46911;32.650;-16.902;2023-03-19T04:04:56;101962.34;;;14.64;78.16
61026;BME280;46911;32.650;-16.902;2023-03-19T04:06:59;101937.53;;;14.46;78.09
61026;BME280;46911;32.650;-16.902;2023-03-19T04:09:10;101952.75;;;14.60;78.11
61026;BME280;46911;32.650;-16.902;2023-03-19T04:11:14;101946.72;;;14.56;78.28
61026;BME280;46911;32.650;-16.902;2023-03-19T04:13:17;101948.44;;;14.57;78.44
61026;BME280;46911;32.650;-16.902;2023-03-19T04:15:18;101923.28;;;14.46;78.50
61026;BME280;46911;32.650;-16.902;2023-03-19T04:17:21;101927.00;;;14.43;78.71
61026;BME280;46911;32.650;-16.902;2023-03-19T04:19:30;101922.78;;;14.39;78.96
61026;BME280;46911;32.650;-16.902;2023-03-19T04:21:32;101944.44;;;14.50;78.77
61026;BME280;46911;32.650;-16.902;2023-03-19T04:23:33;101941.84;;;14.49;78.96
61026;BME280;46911;32.650;-16.902;2023-03-19T04:25:38;101923.88;;;14.36;79.16
61026;BME280;46911;32.650;-16.902;2023-03-19T04:27:40;101938.41;;;14.47;79.46
61026;BME280;46911;32.650;-16.902;2023-03-19T04:29:45;101935.06;;;14.43;79.27
61026;BME280;46911;32.650;-16.902;2023-03-19T04:31:47;101935.53;;;14.50;79.40
61026;BME280;46911;32.650;-16.902;2023-03-19T04:33:48;101937.53;;;14.46;79.38
61026;BME280;46911;32.650;-16.902;2023-03-19T04:35:54;101940.91;;;14.50;79.33
61026;BME280;46911;32.650;-16.902;2023-03-19T04:37:58;101927.97;;;14.42;79.44
61026;BME280;46911;32.650;-16.902;2023-03-19T04:39:59;101944.44;;;14.50;79.48
61026;BME280;46911;32.650;-16.902;2023-03-19T04:42:01;101938.22;;;14.50;79.66
61026;BME280;46911;32.650;-16.902;2023-03-19T04:44:10;101922.78;;;14.39;79.41
61026;BME280;46911;32.650;-16.902;2023-03-19T04:46:13;101913.03;;;14.38;79.67
61026;BME280;46911;32.650;-16.902;2023-03-19T04:48:15;101921.94;;;14.38;79.54
61026;BME280;46911;32.650;-16.902;2023-03-19T04:50:18;101920.75;;;14.43;79.29
61026;BME280;46911;32.650;-16.902;2023-03-19T04:52:20;101921.72;;;14.42;79.63
61026;BME280;46911;32.650;-16.902;2023-03-19T04:54:24;101933.03;;;14.47;79.69
61026;BME280;46911;32.650;-16.902;2023-03-19T04:56:27;101940.13;;;14.48;79.75
61026;BME280;46911;32.650;-16.902;2023-03-19T04:58:30;101915.88;;;14.35;79.51
61026;BME280;46911;32.650;-16.902;2023-03-19T05:00:36;101911.56;;;14.32;79.64
61026;BME280;46911;32.650;-16.902;2023-03-19T05:02:37;101905.69;;;14.27;79.75
61026;BME280;46911;32.650;-16.902;2023-03-19T05:04:41;101913.63;;;14.29;79.67
61026;BME280;46911;32.650;-16.902;2023-03-19T05:06:46;101919.84;;;14.29;79.61
61026;BME280;46911;32.650;-16.902;2023-03-19T05:08:47;101942.44;;;14.39;79.78
61026;BME280;46911;32.650;-16.902;2023-03-19T05:10:53;101920.78;;;14.28;79.76
61026;BME280;46911;32.650;-16.902;2023-03-19T05:13:02;101919.09;;;14.27;79.65
61026;BME280;46911;32.650;-16.902;2023-03-19T05:15:13;101918.31;;;14.25;79.43
61026;BME280;46911;32.650;-16.902;2023-03-19T05:17:33;101919.28;;;14.24;79.81
61026;BME280;46911;32.650;-16.902;2023-03-19T05:19:56;101945.34;;;14.36;79.67
61026;BME280;46911;32.650;-16.902;2023-03-19T05:21:59;101917.38;;;14.26;79.13
61026;BME280;46911;32.650;-16.902;2023-03-19T05:24:06;101934.69;;;14.35;79.20
61026;BME280;46911;32.650;-16.902;2023-03-19T05:26:10;101927.31;;;14.24;79.66
61026;BME280;46911;32.650;-16.902;2023-03-19T05:28:30;101950.72;;;14.36;79.35
61026;BME280;46911;32.650;-16.902;2023-03-19T05:30:31;101947.34;;;14.33;79.50
61026;BME280;46911;32.650;-16.902;2023-03-19T05:32:55;101925.69;;;14.21;79.55
61026;BME280;46911;32.650;-16.902;2023-03-19T05:35:16;101925.69;;;14.21;79.33
61026;BME280;46911;32.650;-16.902;2023-03-19T05:37:18;101952.63;;;14.34;79.45
61026;BME280;46911;32.650;-16.902;2023-03-19T05:39:24;101926.56;;;14.22;79.37
61026;BME280;46911;32.650;-16.902;2023-03-19T05:41:37;101938.94;;;14.25;79.26
61026;BME280;46911;32.650;-16.902;2023-03-19T05:43:40;101927.72;;;14.18;79.29
61026;BME280;46911;32.650;-16.902;2023-03-19T05:45:53;101950.25;;;14.30;79.25
61026;BME280;46911;32.650;-16.902;2023-03-19T05:48:01;101927.72;;;14.18;79.36
61026;BME280;46911;32.650;-16.902;2023-03-19T05:50:08;101932.78;;;14.22;78.98
61026;BME280;46911;32.650;-16.902;2023-03-19T05:52:17;101949.56;;;14.26;79.16
61026;BME280;46911;32.650;-16.902;2023-03-19T05:54:19;101963.66;;;14.30;79.16
61026;BME280;46911;32.650;-16.902;2023-03-19T05:56:52;101949.19;;;14.18;79.03
61026;BME280;46911;32.650;-16.902;2023-03-19T05:59:10;101949.31;;;14.16;79.28
61026;BME280;46911;32.650;-16.902;2023-03-19T06:01:15;101960.41;;;14.25;79.03
61026;BME280;46911;32.650;-16.902;2023-03-19T06:03:19;101948.53;;;14.14;79.26
61026;BME280;46911;32.650;-16.902;2023-03-19T06:05:27;101956.19;;;14.20;79.32
61026;BME280;46911;32.650;-16.902;2023-03-19T06:07:35;101958.94;;;14.19;79.30
61026;BME280;46911;32.650;-16.902;2023-03-19T06:09:37;101940.09;;;14.06;79.88
61026;BME280;46911;32.650;-16.902;2023-03-19T06:11:42;101940.22;;;14.04;79.83
61026;BME280;46911;32.650;-16.902;2023-03-19T06:14:12;101966.34;;;14.15;79.89
61026;BME280;46911;32.650;-16.902;2023-03-19T06:16:20;101944.78;;;14.02;80.09
61026;BME280;46911;32.650;-16.902;2023-03-19T06:18:28;101948.44;;;14.01;79.96
61026;BME280;46911;32.650;-16.902;2023-03-19T06:20:30;101964.53;;;14.16;80.16
61026;BME280;46911;32.650;-16.902;2023-03-19T06:22:31;101961.94;;;14.14;80.10
61026;BME280;46911;32.650;-16.902;2023-03-19T06:24:37;101944.78;;;14.02;80.27
61026;BME280;46911;32.650;-16.902;2023-03-19T06:26:44;101941.25;;;14.02;80.19
61026;BME280;46911;32.650;-16.902;2023-03-19T06:28:48;101951.09;;;14.16;80.28
61026;BME280;46911;32.650;-16.902;2023-03-19T06:30:55;101942.09;;;14.02;80.26
61026;BME280;46911;32.650;-16.902;2023-03-19T06:33:17;101929.66;;;14.01;80.35
61026;BME280;46911;32.650;-16.902;2023-03-19T06:35:20;101950.72;;;14.07;80.51
61026;BME280;46911;32.650;-16.902;2023-03-19T06:37:23;101939.16;;;14.07;80.24
61026;BME280;46911;32.650;-16.902;2023-03-19T06:39:27;101959.34;;;14.13;80.33
61026;BME280;46911;32.650;-16.902;2023-03-19T06:41:28;101947.38;;;14.04;80.29
61026;BME280;46911;32.650;-16.902;2023-03-19T06:43:36;101942.00;;;14.04;80.32
61026;BME280;46911;32.650;-16.902;2023-03-19T06:45:37;101950.84;;;14.06;80.19
61026;BME280;46911;32.650;-16.902;2023-03-19T06:47:40;101961.09;;;14.14;80.04
61026;BME280;46911;32.650;-16.902;2023-03-19T06:49:41;101964.72;;;14.13;79.93
61026;BME280;46911;32.650;-16.902;2023-03-19T06:51:42;101971.81;;;14.14;80.05
61026;BME280;46911;32.650;-16.902;2023-03-19T06:53:43;101956.38;;;14.03;80.10
61026;BME280;46911;32.650;-16.902;2023-03-19T06:55:45;101957.63;;;13.97;80.41
61026;BME280;46911;32.650;-16.902;2023-03-19T06:57:49;101980.25;;;14.07;80.31
61026;BME280;46911;32.650;-16.902;2023-03-19T06:59:53;101955.91;;;13.96;80.51
61026;BME280;46911;32.650;-16.902;2023-03-19T07:01:56;101954.94;;;13.97;80.09
61026;BME280;46911;32.650;-16.902;2023-03-19T07:03:57;101980.34;;;14.06;80.09
61026;BME280;46911;32.650;-16.902;2023-03-19T07:06:01;101974.97;;;14.06;80.17
61026;BME280;46911;32.650;-16.902;2023-03-19T07:08:05;101978.63;;;14.05;80.14
61026;BME280;46911;32.650;-16.902;2023-03-19T07:10:11;101981.59;;;14.00;80.13
61026;BME280;46911;32.650;-16.902;2023-03-19T07:12:15;101965.97;;;13.93;80.26
61026;BME280;46911;32.650;-16.902;2023-03-19T07:14:18;101954.38;;;13.92;80.01
61026;BME280;46911;32.650;-16.902;2023-03-19T07:16:19;101969.13;;;13.99;79.81
61026;BME280;46911;32.650;-16.902;2023-03-19T07:18:27;101979.75;;;14.01;80.13
61026;BME280;46911;32.650;-16.902;2023-03-19T07:20:31;101988.41;;;14.06;80.05
61026;BME280;46911;32.650;-16.902;2023-03-19T07:22:32;101983.78;;;14.08;79.95
61026;BME280;46911;32.650;-16.902;2023-03-19T07:24:38;101986.41;;;14.10;79.96
61026;BME280;46911;32.650;-16.902;2023-03-19T07:26:42;101993.47;;;14.11;79.97
61026;BME280;46911;32.650;-16.902;2023-03-19T07:28:45;101970.78;;;14.02;79.64
61026;BME280;46911;32.650;-16.902;2023-03-19T07:30:46;101971.41;;;14.05;79.29
61026;BME280;46911;32.650;-16.902;2023-03-19T07:32:53;101994.41;;;14.24;79.26
61026;BME280;46911;32.650;-16.902;2023-03-19T07:34:54;101988.88;;;14.27;79.20
61026;BME280;46911;32.650;-16.902;2023-03-19T07:36:58;101965.19;;;14.19;78.75
61026;BME280;46911;32.650;-16.902;2023-03-19T07:38:59;101985.88;;;14.32;78.64
61026;BME280;46911;32.650;-16.902;2023-03-19T07:41:03;101984.34;;;14.42;78.20
61026;BME280;46911;32.650;-16.902;2023-03-19T07:43:09;101985.28;;;14.41;78.33
61026;BME280;46911;32.650;-16.902;2023-03-19T07:45:10;101987.78;;;14.44;78.17
61026;BME280;46911;32.650;-16.902;2023-03-19T07:47:18;101991.34;;;14.45;77.92
61026;BME280;46911;32.650;-16.902;2023-03-19T07:49:19;101980.78;;;14.42;77.92
61026;BME280;46911;32.650;-16.902;2023-03-19T07:51:20;101970.03;;;14.42;77.83
61026;BME280;46911;32.650;-16.902;2023-03-19T07:53:23;101989.59;;;14.58;77.50
61026;BME280;46911;32.650;-16.902;2023-03-19T07:55:26;101983.06;;;14.62;77.43
61026;BME280;46911;32.650;-16.902;2023-03-19T07:57:27;101989.78;;;14.69;77.20
61026;BME280;46911;32.650;-16.902;2023-03-19T07:59:28;101990.22;;;14.76;77.03
61026;BME280;46911;32.650;-16.902;2023-03-19T08:01:29;101989.63;;;14.85;76.44
61026;BME280;46911;32.650;-16.902;2023-03-19T08:03:32;102002.78;;;14.90;76.44
61026;BME280;46911;32.650;-16.902;2023-03-19T08:05:35;101984.16;;;14.87;76.06
61026;BME280;46911;32.650;-16.902;2023-03-19T08:07:42;102001.19;;;15.00;75.81
61026;BME280;46911;32.650;-16.902;2023-03-19T08:09:44;102004.88;;;15.12;75.45
61026;BME280;46911;32.650;-16.902;2023-03-19T08:11:45;102006.31;;;15.18;75.50
61026;BME280;46911;32.650;-16.902;2023-03-19T08:13:48;102009.47;;;15.25;75.03
61026;BME280;46911;32.650;-16.902;2023-03-19T08:15:49;102004.59;;;15.30;74.57
61026;BME280;46911;32.650;-16.902;2023-03-19T08:17:58;102011.41;;;15.35;74.52
61026;BME280;46911;32.650;-16.902;2023-03-19T08:19:59;102017.03;;;15.45;74.40
61026;BME280;46911;32.650;-16.902;2023-03-19T08:22:00;102000.34;;;15.40;73.96
61026;BME280;46911;32.650;-16.902;2023-03-19T08:24:01;101995.63;;;15.44;73.99
61026;BME280;46911;32.650;-16.902;2023-03-19T08:26:02;101995.19;;;15.50;73.46
61026;BME280;46911;32.650;-16.902;2023-03-19T08:28:09;102000.94;;;15.58;73.28
61026;BME280;46911;32.650;-16.902;2023-03-19T08:30:10;101999.31;;;15.68;73.13
61026;BME280;46911;32.650;-16.902;2023-03-19T08:32:11;102015.38;;;15.83;72.96
61026;BME280;46911;32.650;-16.902;2023-03-19T08:34:17;102010.78;;;15.85;72.43
61026;BME280;46911;32.650;-16.902;2023-03-19T08:36:20;102015.28;;;15.97;72.15
61026;BME280;46911;32.650;-16.902;2023-03-19T08:38:24;102021.63;;;16.09;72.02
61026;BME280;46911;32.650;-16.902;2023-03-19T08:40:28;102003.97;;;16.05;71.54
61026;BME280;46911;32.650;-16.902;2023-03-19T08:42:31;102023.13;;;16.26;71.62
61026;BME280;46911;32.650;-16.902;2023-03-19T08:44:32;102025.25;;;16.34;71.33
61026;BME280;46911;32.650;-16.902;2023-03-19T08:46:36;102010.94;;;16.33;70.97
61026;BME280;46911;32.650;-16.902;2023-03-19T08:48:42;102008.56;;;16.42;70.95
61026;BME280;46911;32.650;-16.902;2023-03-19T08:50:54;102027.03;;;16.59;70.92
61026;BME280;46911;32.650;-16.902;2023-03-19T08:52:58;102033.59;;;16.68;70.80
61026;BME280;46911;32.650;-16.902;2023-03-19T08:54:59;102009.56;;;16.65;70.71
61026;BME280;46911;32.650;-16.902;2023-03-19T08:57:00;102026.00;;;16.86;70.60
61026;BME280;46911;32.650;-16.902;2023-03-19T08:59:01;102018.59;;;16.89;70.37
61026;BME280;46911;32.650;-16.902;2023-03-19T09:01:07;102005.97;;;16.90;70.26
61026;BME280;46911;32.650;-16.902;2023-03-19T09:03:14;102007.75;;;17.02;70.13
61026;BME280;46911;32.650;-16.902;2023-03-19T09:05:16;102029.88;;;17.19;70.03
61026;BME280;46911;32.650;-16.902;2023-03-19T09:07:21;102023.78;;;17.28;69.71
61026;BME280;46911;32.650;-16.902;2023-03-19T09:09:25;102010.31;;;17.28;69.92
61026;BME280;46911;32.650;-16.902;2023-03-19T09:11:26;102031.34;;;17.47;70.01
61026;BME280;46911;32.650;-16.902;2023-03-19T09:13:29;102014.56;;;17.55;69.68
61026;BME280;46911;32.650;-16.902;2023-03-19T09:15:32;102024.19;;;17.70;69.55
61026;BME280;46911;32.650;-16.902;2023-03-19T09:17:38;102014.38;;;17.69;69.50
61026;BME280;46911;32.650;-16.902;2023-03-19T09:19:41;102011.63;;;17.58;70.11
61026;BME280;46911;32.650;-16.902;2023-03-19T09:21:42;102027.75;;;17.82;70.19
61026;BME280;46911;32.650;-16.902;2023-03-19T09:23:44;102012.31;;;17.84;69.69
61026;BME280;46911;32.650;-16.902;2023-03-19T09:25:47;102031.16;;;18.20;69.00
61026;BME280;46911;32.650;-16.902;2023-03-19T09:27:48;102022.25;;;18.74;66.99
61026;BME280;46911;32.650;-16.902;2023-03-19T09:29:49;102016.53;;;19.44;65.82
61026;BME280;46911;32.650;-16.902;2023-03-19T09:31:50;102017.91;;;20.33;64.12
61026;BME280;46911;32.650;-16.902;2023-03-19T09:33:51;102013.81;;;20.79;61.08
61026;BME280;46911;32.650;-16.902;2023-03-19T09:35:53;102009.22;;;20.80;59.04
61026;BME280;46911;32.650;-16.902;2023-03-19T09:37:54;102028.09;;;21.79;57.87
61026;BME280;46911;32.650;-16.902;2023-03-19T09:39:55;102019.47;;;22.69;56.26
61026;BME280;46911;32.650;-16.902;2023-03-19T09:42:17;102021.25;;;23.68;54.12
61026;BME280;46911;32.650;-16.902;2023-03-19T09:44:30;102025.25;;;24.00;50.77
61026;BME280;46911;32.650;-16.902;2023-03-19T09:48:46;102028.94;;;25.19;49.57
61026;BME280;46911;32.650;-16.902;2023-03-19T09:50:51;102033.91;;;25.49;46.59
61026;BME280;46911;32.650;-16.902;2023-03-19T09:53:01;102017.88;;;24.62;47.96
61026;BME280;46911;32.650;-16.902;2023-03-19T09:55:27;102037.28;;;25.01;47.85
61026;BME280;46911;32.650;-16.902;2023-03-19T09:57:32;102031.22;;;24.38;48.43
61026;BME280;46911;32.650;-16.902;2023-03-19T09:59:37;102019.31;;;24.82;47.58
61026;BME280;46911;32.650;-16.902;2023-03-19T10:01:39;102030.13;;;25.09;47.99
61026;BME280;46911;32.650;-16.902;2023-03-19T10:06:25;102027.91;;;25.53;46.24
61026;BME280;46911;32.650;-16.902;2023-03-19T10:15:57;102016.75;;;25.96;45.04
61026;BME280;46911;32.650;-16.902;2023-03-19T10:20:08;102020.19;;;24.99;47.08
61026;BME280;46911;32.650;-16.902;2023-03-19T10:22:24;102035.94;;;25.71;46.24
61026;BME280;46911;32.650;-16.902;2023-03-19T10:24:39;102021.41;;;25.05;47.24
61026;BME280;46911;32.650;-16.902;2023-03-19T10:26:45;102037.81;;;25.30;46.41
61026;BME280;46911;32.650;-16.902;2023-03-19T10:29:17;102045.47;;;25.18;47.07
61026;BME280;46911;32.650;-16.902;2023-03-19T10:33:43;102024.72;;;24.31;48.81
61026;BME280;46911;32.650;-16.902;2023-03-19T10:35:53;102036.00;;;24.36;49.04
61026;BME280;46911;32.650;-16.902;2023-03-19T10:38:12;102024.31;;;23.65;50.83
61026;BME280;46911;32.650;-16.902;2023-03-19T10:40:35;102043.44;;;24.61;48.70
61026;BME280;46911;32.650;-16.902;2023-03-19T10:43:31;102047.94;;;25.37;46.78
61026;BME280;46911;32.650;-16.902;2023-03-19T10:45:35;102045.34;;;26.50;44.05
61026;BME280;46911;32.650;-16.902;2023-03-19T10:47:40;102036.53;;;26.71;43.65
61026;BME280;46911;32.650;-16.902;2023-03-19T10:49:47;102050.50;;;26.45;44.44
61026;BME280;46911;32.650;-16.902;2023-03-19T10:51:49;102052.28;;;26.21;44.31
61026;BME280;46911;32.650;-16.902;2023-03-19T10:53:53;102063.56;;;26.01;44.09
61026;BME280;46911;32.650;-16.902;2023-03-19T10:58:19;102059.38;;;24.13;48.77
61026;BME280;46911;32.650;-16.902;2023-03-19T11:00:24;102035.47;;;23.18;51.09
61026;BME280;46911;32.650;-16.902;2023-03-19T11:02:29;102051.13;;;23.06;51.68